Time;durP1;ratioP1;P1;durP2;ratioP2;P2;SDS_P1;SDS_P2;PMS_P1;PMS_P2;Temp;Humidity;BMP_temperature;BMP_pressure;BME280_temperature;BME280_humidity;BME280_pressure;Samples;Min_cycle;Max_cycle;Signal;HPM_P1;HPM_P2
2022/04/04 00:03:17;;;;;;;6.13;3.80;;;;;;;0.02;77.55;96580.94;10412387;28;20205;-56
2022/04/04 00:08:19;;;;;;;8.03;3.27;;;;;;;0.05;77.95;96580.75;10412033;28;20186;-52
2022/04/04 00:13:19;;;;;;;4.10;3.53;;;;;;;0.03;78.17;96582.56;10411587;28;20227;-58
2022/04/04 00:18:20;;;;;;;5.20;3.70;;;;;;;-0.17;79.06;96586.34;10411601;28;20265;-52
2022/04/04 00:23:20;;;;;;;5.40;3.30;;;;;;;-0.21;79.30;96591.69;10411374;28;20599;-58
2022/04/04 00:28:20;;;;;;;4.03;3.53;;;;;;;-0.37;79.95;96591.81;10411125;28;20201;-53
2022/04/04 00:33:21;;;;;;;4.73;3.40;;;;;;;-0.48;80.64;96604.47;10411090;28;20246;-54
2022/04/04 00:38:22;;;;;;;6.10;4.20;;;;;;;-0.60;81.68;96607.75;10410977;28;20224;-53
2022/04/04 00:43:22;;;;;;;4.20;3.40;;;;;;;-0.44;81.09;96590.50;10410329;28;20219;-58
2022/04/04 00:48:23;;;;;;;4.20;2.73;;;;;;;-0.38;81.96;96589.31;10411061;28;20192;-52
2022/04/04 00:53:24;;;;;;;4.57;2.10;;;;;;;-0.34;81.48;96582.22;10410276;28;20236;-52
2022/04/04 00:58:27;;;;;;;6.80;3.60;;;;;;;-0.35;81.87;96581.41;10410278;28;20217;-53
2022/04/04 01:03:28;;;;;;;4.33;3.70;;;;;;;-0.35;81.95;96573.69;10410086;28;20205;-58
2022/04/04 01:08:28;;;;;;;6.13;3.73;;;;;;;-0.23;81.69;96561.81;10410274;28;20193;-57
2022/04/04 01:13:29;;;;;;;8.73;4.50;;;;;;;-0.29;81.72;96559.59;10410299;28;20294;-55
2022/04/04 01:18:29;;;;;;;5.67;3.70;;;;;;;-0.34;82.49;96548.78;10410051;28;20220;-53
2022/04/04 01:23:42;;;;;;;7.70;3.93;;;;;;;-0.39;83.46;96557.59;10410014;28;20208;-53
2022/04/04 01:28:43;;;;;;;5.80;3.83;;;;;;;-0.48;84.03;96549.59;10410068;28;20644;-52
2022/04/04 01:33:43;;;;;;;6.10;3.97;;;;;;;-0.53;84.65;96559.34;10409723;28;20212;-55
2022/04/04 01:38:44;;;;;;;5.60;3.63;;;;;;;-0.49;85.14;96555.66;10414584;28;20224;-53
2022/04/04 01:43:44;;;;;;;4.20;3.40;;;;;;;-0.47;85.51;96546.13;10417102;28;20250;-53
2022/04/04 01:48:44;;;;;;;5.47;3.43;;;;;;;-0.64;86.29;96539.41;10417399;28;20189;-58
2022/04/04 01:53:45;;;;;;;4.43;3.70;;;;;;;-0.67;86.98;96537.00;10421372;22;20252;-56
2022/04/04 01:58:46;;;;;;;6.90;4.07;;;;;;;-0.80;87.79;96535.16;10376562;28;20300;-57
2022/04/04 02:03:48;;;;;;;4.90;3.97;;;;;;;-0.87;89.12;96530.47;10376138;28;20703;-55
2022/04/04 02:08:50;;;;;;;5.97;3.50;;;;;;;-0.81;89.01;96518.09;10376337;28;20197;-59
2022/04/04 02:13:50;;;;;;;4.73;3.20;;;;;;;-0.82;88.71;96513.03;10375667;28;20209;-55
2022/04/04 02:18:51;;;;;;;4.40;3.37;;;;;;;-0.84;88.24;96508.00;10375807;28;20726;-58
2022/04/04 02:23:54;;;;;;;4.60;3.40;;;;;;;-0.93;88.87;96509.34;10375524;28;20216;-54
2022/04/04 02:28:54;;;;;;;3.97;3.40;;;;;;;-0.96;88.91;96504.41;10375494;28;20256;-55
2022/04/04 02:33:54;;;;;;;5.97;3.97;;;;;;;-0.94;88.92;96499.16;10375216;28;20267;-54
2022/04/04 02:38:55;;;;;;;4.70;3.30;;;;;;;-1.01;89.13;96497.84;10374834;28;20736;-53
2022/04/04 02:43:55;;;;;;;4.20;3.60;;;;;;;-1.05;89.88;96492.09;10374416;28;20891;-53
2022/04/04 02:48:56;;;;;;;6.47;3.33;;;;;;;-1.01;89.71;96495.28;10373512;28;20695;-60
2022/04/04 02:53:57;;;;;;;6.63;4.30;;;;;;;-1.12;89.94;96491.63;10374222;28;20272;-54
2022/04/04 02:58:59;;;;;;;7.77;3.27;;;;;;;-1.13;89.92;96484.00;10374246;28;20221;-54
2022/04/04 03:04:00;;;;;;;4.00;3.40;;;;;;;-1.12;89.37;96491.63;10373485;28;20237;-54
2022/04/04 03:09:00;;;;;;;4.77;3.53;;;;;;;-1.12;89.18;96476.19;10373857;28;20209;-54
2022/04/04 03:14:00;;;;;;;10.80;3.60;;;;;;;-1.09;89.21;96473.44;10373493;28;20209;-56
2022/04/04 03:19:01;;;;;;;5.07;3.57;;;;;;;-1.08;88.92;96467.38;10373515;28;20217;-56
2022/04/04 03:24:01;;;;;;;4.67;3.80;;;;;;;-1.20;88.96;96462.97;10373283;28;20216;-58
2022/04/04 03:29:02;;;;;;;6.83;4.10;;;;;;;-1.16;89.07;96456.72;10373084;28;20197;-54
2022/04/04 03:34:04;;;;;;;8.30;3.57;;;;;;;-1.20;88.56;96460.38;10372758;28;20266;-56
2022/04/04 03:39:04;;;;;;;5.73;3.70;;;;;;;-1.23;89.21;96452.03;10372667;28;20288;-59
2022/04/04 03:44:06;;;;;;;3.40;3.10;;;;;;;-1.33;89.85;96460.28;10372147;28;20252;-54
2022/04/04 03:49:06;;;;;;;5.37;4.30;;;;;;;-1.32;89.24;96446.53;10372819;28;20243;-55
2022/04/04 03:54:07;;;;;;;7.70;5.23;;;;;;;-1.29;89.33;96438.66;10371098;28;20784;-58
2022/04/04 03:59:09;;;;;;;6.63;4.67;;;;;;;-1.30;88.63;96438.75;10371804;28;20224;-58
2022/04/04 04:04:09;;;;;;;19.20;9.33;;;;;;;-1.34;89.29;96432.13;10372329;28;20243;-60
2022/04/04 04:09:09;;;;;;;7.63;5.07;;;;;;;-1.38;89.68;96423.75;10372083;28;20196;-60
2022/04/04 04:14:10;;;;;;;6.70;3.93;;;;;;;-1.50;90.34;96429.59;10371825;28;20209;-59
2022/04/04 04:20:19;;;;;;;5.83;4.33;;;;;;;-1.50;90.14;96427.03;10371431;28;20232;-60
2022/04/04 04:24:30;;;;;;;6.67;4.57;;;;;;;-1.46;90.54;96424.19;10371661;28;20634;-60
2022/04/04 04:29:32;;;;;;;4.30;3.47;;;;;;;-1.45;89.82;96409.63;10370972;28;20193;-61
2022/04/04 04:34:32;;;;;;;7.00;3.90;;;;;;;-1.40;89.73;96412.75;10371158;28;20216;-59
2022/04/04 04:39:32;;;;;;;5.27;4.73;;;;;;;-1.45;90.44;96405.28;10370855;28;20247;-60
2022/04/04 04:44:33;;;;;;;9.27;4.13;;;;;;;-1.29;89.38;96400.09;10370864;28;20205;-59
2022/04/04 04:49:34;;;;;;;4.27;3.03;;;;;;;-1.26;89.45;96397.34;10370925;28;20194;-60
2022/04/04 04:54:34;;;;;;;7.13;5.00;;;;;;;-1.16;88.58;96387.34;10369673;28;20237;-60
2022/04/04 04:59:35;;;;;;;7.67;4.17;;;;;;;-1.17;88.51;96390.81;10370469;28;20279;-60
2022/04/04 05:04:35;;;;;;;11.50;4.60;;;;;;;-1.09;87.96;96380.91;10370043;28;20351;-60
2022/04/04 05:09:35;;;;;;;10.97;5.53;;;;;;;-1.01;88.07;96384.75;10370391;28;20189;-60
2022/04/04 05:14:36;;;;;;;5.60;4.10;;;;;;;-0.91;87.30;96371.22;10376577;28;20295;-59
2022/04/04 05:19:36;;;;;;;3.77;3.40;;;;;;;-0.82;86.35;96372.41;10378141;28;20287;-57
2022/04/04 05:24:37;;;;;;;8.37;4.67;;;;;;;-0.78;86.55;96363.59;10378253;28;20213;-60
2022/04/04 05:29:37;;;;;;;5.33;4.30;;;;;;;-0.60;85.04;96363.38;10378045;28;20243;-60
2022/04/04 05:34:37;;;;;;;5.40;4.33;;;;;;;-0.52;84.64;96356.00;10377584;28;20221;-60
2022/04/04 05:39:38;;;;;;;6.90;5.80;;;;;;;-0.29;82.72;96349.41;10377093;28;20232;-59
2022/04/04 05:44:38;;;;;;;5.33;4.63;;;;;;;0.02;82.02;96334.53;10377311;28;20244;-60
2022/04/04 05:49:38;;;;;;;8.43;6.23;;;;;;;0.03;81.84;96333.63;10377241;28;20322;-58
2022/04/04 05:54:53;;;;;;;7.17;6.20;;;;;;;0.08;80.24;96312.72;10376658;28;20271;-59
2022/04/04 05:59:54;;;;;;;9.67;7.17;;;;;;;0.31;79.87;96295.72;10376888;28;20258;-60
2022/04/04 06:04:55;;;;;;;11.77;6.20;;;;;;;0.60;78.39;96277.41;10376602;28;20324;-60
2022/04/04 06:09:57;;;;;;;9.73;7.20;;;;;;;0.68;77.04;96255.34;10376440;28;20279;-59
2022/04/04 06:14:57;;;;;;;8.40;5.43;;;;;;;1.30;76.22;96240.66;10406558;28;20244;-59
2022/04/04 06:19:58;;;;;;;9.30;6.33;;;;;;;1.31;76.36;96260.38;10416879;28;20239;-57
2022/04/04 06:24:58;;;;;;;8.47;6.23;;;;;;;1.50;74.67;96231.50;10416875;28;20224;-55
2022/04/04 06:29:59;;;;;;;5.47;4.87;;;;;;;1.45;75.35;96240.50;10416538;28;20202;-57
2022/04/04 06:35:00;;;;;;;8.53;6.20;;;;;;;1.68;74.71;96233.66;10416427;28;20208;-55
2022/04/04 06:40:00;;;;;;;7.00;6.10;;;;;;;1.84;73.33;96212.66;10415772;28;20246;-57
2022/04/04 06:45:00;;;;;;;7.93;6.17;;;;;;;1.35;74.04;96212.78;10406137;28;20236;-55
2022/04/04 06:50:01;;;;;;;7.47;6.10;;;;;;;1.28;75.13;96241.75;10372058;28;20196;-59
2022/04/04 06:55:02;;;;;;;6.80;6.10;;;;;;;1.47;74.12;96217.97;10372920;28;20295;-58
2022/04/04 07:00:03;;;;;;;7.63;5.90;;;;;;;1.78;73.59;96209.63;10373054;28;20221;-59
2022/04/04 07:05:05;;;;;;;7.33;6.03;;;;;;;2.18;71.85;96186.91;10373008;28;20215;-56
2022/04/04 07:10:06;;;;;;;8.77;6.00;;;;;;;2.21;70.60;96147.91;10372421;28;20193;-58
2022/04/04 07:15:08;;;;;;;6.00;5.23;;;;;;;2.46;71.02;96163.13;10372557;28;20221;-57
2022/04/04 07:20:09;;;;;;;7.37;6.53;;;;;;;2.46;71.53;96181.22;10369862;28;20318;-56
2022/04/04 07:25:10;;;;;;;6.80;5.93;;;;;;;2.68;70.24;96148.53;10369864;28;20221;-56
2022/04/04 07:30:17;;;;;;;7.37;6.50;;;;;;;2.14;69.96;96127.69;10353517;28;20217;-55
2022/04/04 07:35:19;;;;;;;7.27;5.63;;;;;;;2.90;68.86;96123.53;10370512;28;20267;-59
2022/04/04 07:40:20;;;;;;;10.83;7.00;;;;;;;2.49;69.13;96115.53;10371099;28;20229;-56
2022/04/04 07:45:21;;;;;;;6.50;5.83;;;;;;;2.94;68.34;96112.81;10370124;28;20258;-61
2022/04/04 07:50:21;;;;;;;7.77;6.93;;;;;;;2.57;68.21;96112.34;10369709;28;20246;-58
2022/04/04 07:55:21;;;;;;;8.73;7.70;;;;;;;2.62;67.48;96089.50;10421022;22;20240;-57
2022/04/04 08:00:24;;;;;;;10.70;7.70;;;;;;;3.61;67.02;96082.31;10377326;28;20703;-60
2022/04/04 08:05:26;;;;;;;9.37;6.90;;;;;;;3.53;65.15;96045.88;10381571;28;20252;-60
2022/04/04 08:10:27;;;;;;;7.67;6.70;;;;;;;2.56;66.81;96079.66;10407635;28;20184;-56
2022/04/04 08:15:27;;;;;;;5.80;5.23;;;;;;;2.97;65.30;96018.59;10407018;28;20616;-58
2022/04/04 08:20:28;;;;;;;6.23;5.63;;;;;;;3.10;63.63;95992.53;10406650;28;20266;-57
2022/04/04 08:25:29;;;;;;;5.87;5.27;;;;;;;3.20;63.90;95993.38;10406524;28;20216;-58
2022/04/04 08:30:29;;;;;;;7.13;4.50;;;;;;;3.62;63.27;95989.91;10406877;28;20284;-52
2022/04/04 08:35:29;;;;;;;6.13;4.80;;;;;;;3.10;62.15;95949.34;10406755;28;20633;-57
2022/04/04 08:40:30;;;;;;;6.13;5.27;;;;;;;3.27;62.10;95963.47;10406702;28;20228;-55
2022/04/04 08:45:31;;;;;;;4.43;3.40;;;;;;;3.95;59.38;95887.72;10405209;28;20214;-57
2022/04/04 08:50:32;;;;;;;3.13;2.83;;;;;;;4.61;58.34;95889.56;10406920;28;20747;-54
2022/04/04 08:55:34;;;;;;;6.00;4.67;;;;;;;4.01;57.45;95832.75;10404672;28;20243;-60
2022/04/04 09:00:38;;;;;;;4.70;3.43;;;;;;;5.05;56.64;95878.63;10405782;28;20216;-54
2022/04/04 09:05:53;;;;;;;3.97;3.33;;;;;;;4.90;56.03;95828.97;10406053;28;20220;-54
2022/04/04 09:10:54;;;;;;;4.40;3.23;;;;;;;5.20;54.80;95800.28;10406454;28;20185;-55
2022/04/04 09:16:03;;;;;;;4.37;3.97;;;;;;;4.86;55.55;95788.69;10404393;28;20235;-58
2022/04/04 09:21:04;;;;;;;5.97;4.80;;;;;;;3.81;54.38;95755.97;10403972;28;20217;-59
2022/04/04 09:26:26;;;;;;;4.30;3.90;;;;;;;5.33;55.21;95811.13;10404944;28;20307;-61
2022/04/04 09:31:27;;;;;;;5.33;4.80;;;;;;;5.11;55.27;95783.78;10387082;28;20216;-57
2022/04/04 09:36:28;;;;;;;3.27;2.97;;;;;;;4.32;54.96;95759.97;10404602;28;20228;-55
2022/04/04 09:41:28;;;;;;;6.07;4.83;;;;;;;4.13;54.78;95745.28;10405259;28;20584;-57
2022/04/04 09:46:33;;;;;;;3.73;3.43;;;;;;;5.88;51.80;95682.81;10402602;28;20220;-60
2022/04/04 09:51:38;;;;;;;5.03;4.07;;;;;;;4.75;52.81;95701.50;10394270;28;20197;-60
2022/04/04 09:56:39;;;;;;;3.30;3.00;;;;;;;5.19;52.58;95690.41;10400249;28;20255;-59
2022/04/04 10:01:39;;;;;;;4.77;4.20;;;;;;;4.81;53.36;95684.53;10411964;28;20751;-57
2022/04/04 10:06:47;;;;;;;4.30;3.90;;;;;;;4.24;54.59;95702.81;10394822;28;20219;-53
2022/04/04 10:11:47;;;;;;;5.43;3.90;;;;;;;4.42;54.73;95705.47;10413008;28;20242;-55
2022/04/04 10:16:48;;;;;;;4.53;3.53;;;;;;;3.93;54.38;95666.78;10412093;28;20223;-57
2022/04/04 10:21:48;;;;;;;3.53;3.23;;;;;;;3.89;52.67;95622.19;10411858;28;20224;-57
2022/04/04 10:26:50;;;;;;;4.57;3.67;;;;;;;4.29;53.69;95652.16;10411125;28;20236;-53
2022/04/04 10:31:59;;;;;;;4.13;3.83;;;;;;;4.19;55.20;95682.50;10393246;28;20189;-55
2022/04/04 10:37:01;;;;;;;4.80;3.70;;;;;;;4.24;55.83;95695.88;10411959;28;20261;-56
2022/04/04 10:42:03;;;;;;;4.50;4.10;;;;;;;4.43;55.61;95694.97;10411002;28;20231;-58
2022/04/04 10:47:19;;;;;;;4.80;4.23;;;;;;;4.78;54.51;95651.09;10411331;28;20263;-58
2022/04/04 10:52:37;;;;;;;4.73;4.00;;;;;;;4.58;54.84;95656.41;10408155;28;20211;-56
2022/04/04 10:57:40;;;;;;;6.57;4.30;;;;;;;4.63;54.75;95628.22;10405930;28;20212;-54
2022/04/04 11:02:41;;;;;;;3.07;2.77;;;;;;;4.46;52.24;95557.22;10407120;28;20228;-53
2022/04/04 11:07:41;;;;;;;4.33;3.03;;;;;;;5.40;50.87;95525.69;10410196;28;20268;-57
2022/04/04 11:13:00;;;;;;;5.83;3.30;;;;;;;4.97;51.94;95536.75;10391260;28;20250;-57
2022/04/04 11:18:01;;;;;;;3.10;2.80;;;;;;;4.48;53.76;95572.66;10409504;28;20227;-56
2022/04/04 11:23:10;;;;;;;4.30;3.83;;;;;;;4.49;53.63;95553.53;10410263;28;20637;-58
2022/04/04 11:28:10;;;;;;;3.53;3.23;;;;;;;4.71;52.52;95517.75;10412181;28;20291;-56
2022/04/04 11:33:18;;;;;;;1.97;1.80;;;;;;;5.09;51.97;95489.78;10412644;28;20654;-58
2022/04/04 11:38:22;;;;;;;5.77;3.77;;;;;;;4.94;51.53;95479.16;10411291;28;20228;-57
2022/04/04 11:43:24;;;;;;;4.83;3.70;;;;;;;4.41;53.51;95507.59;10410986;28;20692;-54
2022/04/04 11:48:24;;;;;;;3.80;3.40;;;;;;;4.89;53.67;95512.53;10412092;28;20213;-56
2022/04/04 11:53:30;;;;;;;4.43;4.03;;;;;;;4.41;53.84;95506.75;10410846;28;20271;-52
2022/04/04 11:58:31;;;;;;;5.17;4.67;;;;;;;4.54;53.51;95472.69;10411207;28;20220;-52
2022/04/04 12:03:43;;;;;;;5.10;4.57;;;;;;;5.27;52.62;95453.41;10393729;28;20718;-51
2022/04/04 12:08:44;;;;;;;6.17;3.87;;;;;;;5.66;52.01;95419.94;10410913;28;20690;-52
2022/04/04 12:13:51;;;;;;;6.23;3.63;;;;;;;5.65;54.59;95478.06;10410542;28;20208;-59
2022/04/04 12:18:58;;;;;;;5.90;4.70;;;;;;;5.09;53.24;95425.72;10410472;28;20560;-51
2022/04/04 12:29:18;;;;;;;6.37;5.03;;;;;;;4.90;53.52;95390.41;10395047;28;20235;-52
2022/04/04 12:34:21;;;;;;;6.30;4.90;;;;;;;5.20;52.44;95357.13;10409647;28;20208;-52
2022/04/04 12:39:22;;;;;;;4.50;3.97;;;;;;;5.94;50.81;95328.72;10408839;28;20227;-51
2022/04/04 12:44:24;;;;;;;5.73;4.90;;;;;;;5.96;50.79;95324.16;10409955;28;20223;-52
2022/04/04 12:49:26;;;;;;;4.50;3.87;;;;;;;5.95;51.88;95332.13;10409831;28;20726;-52
2022/04/04 12:54:30;;;;;;;6.27;4.87;;;;;;;5.81;52.50;95341.38;10409695;28;20283;-54
2022/04/04 12:59:46;;;;;;;7.53;5.07;;;;;;;6.48;50.79;95311.78;10409627;28;20256;-52
2022/04/04 13:04:47;;;;;;;5.23;4.73;;;;;;;5.94;51.38;95310.53;10409728;28;20728;-57
2022/04/04 13:09:52;;;;;;;8.43;7.27;;;;;;;5.68;52.69;95327.06;10408622;28;20193;-56
2022/04/04 13:14:52;;;;;;;5.60;5.00;;;;;;;6.30;51.57;95289.41;10405533;28;20215;-54
2022/04/04 13:19:52;;;;;;;5.63;5.03;;;;;;;6.07;51.77;95269.25;10407070;28;20216;-51
2022/04/04 13:24:53;;;;;;;5.47;4.73;;;;;;;5.51;50.28;95217.16;10407173;28;20212;-54
2022/04/04 13:29:53;;;;;;;5.67;5.07;;;;;;;5.79;52.18;95262.75;10399526;28;20224;-59
2022/04/04 13:34:53;;;;;;;6.27;5.67;;;;;;;5.73;52.78;95272.03;10408508;28;20220;-57
2022/04/04 13:39:54;;;;;;;6.37;5.07;;;;;;;5.85;51.61;95233.50;10415112;28;20832;-51
2022/04/04 13:44:54;;;;;;;8.93;5.43;;;;;;;5.20;52.74;95229.91;10392192;28;20208;-56
2022/04/04 13:49:58;;;;;;;9.33;7.03;;;;;;;5.45;54.10;95263.72;10405403;28;20671;-53
2022/04/04 13:54:58;;;;;;;5.93;4.83;;;;;;;5.58;52.72;95217.28;10454324;22;20726;-59
2022/04/04 13:59:59;;;;;;;7.30;5.57;;;;;;;5.58;52.34;95199.09;10457155;28;20247;-56
2022/04/04 14:04:59;;;;;;;5.63;5.03;;;;;;;5.76;52.20;95172.13;10457504;28;20218;-55
2022/04/04 14:09:59;;;;;;;4.77;3.67;;;;;;;5.76;50.40;95123.59;10454176;28;20333;-53
2022/04/04 14:15:00;;;;;;;4.20;3.43;;;;;;;5.75;51.22;95134.16;10443654;28;20212;-53
2022/04/04 14:20:00;;;;;;;7.50;5.30;;;;;;;5.42;52.71;95175.72;10441158;28;20228;-56
2022/04/04 14:25:00;;;;;;;5.50;3.40;;;;;;;5.29;51.96;95145.88;10434789;28;20327;-53
2022/04/04 14:30:01;;;;;;;5.87;5.27;;;;;;;4.66;53.17;95151.66;10432014;28;20189;-55
2022/04/04 14:35:01;;;;;;;6.90;4.60;;;;;;;4.69;53.95;95175.47;10434106;28;20593;-58
2022/04/04 14:40:02;;;;;;;5.03;4.53;;;;;;;4.62;54.44;95184.84;10420494;28;20605;-58
2022/04/04 14:45:04;;;;;;;4.73;4.13;;;;;;;4.43;55.50;95207.47;10432533;28;20604;-56
2022/04/04 14:50:07;;;;;;;6.67;4.40;;;;;;;4.27;56.52;95243.69;10426303;28;20250;-57
2022/04/04 14:55:14;;;;;;;5.10;4.10;;;;;;;4.23;57.81;95258.75;10430950;28;20243;-59
2022/04/04 15:00:15;;;;;;;7.23;4.80;;;;;;;4.10;59.56;95292.03;10430594;28;20656;-57
2022/04/04 15:05:15;;;;;;;6.77;4.37;;;;;;;4.15;59.53;95281.19;10432103;28;20694;-54
2022/04/04 15:10:18;;;;;;;5.47;4.47;;;;;;;4.21;61.17;95325.50;10451763;28;20184;-52
2022/04/04 15:15:18;;;;;;;7.47;5.07;;;;;;;3.43;63.54;95388.25;10454296;28;20230;-55
2022/04/04 15:20:19;;;;;;;3.77;3.40;;;;;;;3.31;67.62;95475.63;10453420;28;20231;-56
2022/04/04 15:25:19;;;;;;;11.87;7.27;;;;;;;2.17;77.52;95596.94;10453818;28;20609;-58
2022/04/04 15:30:19;;;;;;;42.07;24.47;;;;;;;1.57;87.57;95563.31;10429648;28;20185;-54
2022/04/04 15:35:20;;;;;;;5.70;4.33;;;;;;;1.26;96.38;95529.78;10412275;28;20235;-55
2022/04/04 15:40:21;;;;;;;8.37;7.47;;;;;;;0.89;100.00;95525.09;10412219;28;20222;-57
2022/04/04 15:45:23;;;;;;;10.27;4.60;;;;;;;0.74;100.00;95500.56;10411678;28;20250;-58
2022/04/04 15:50:24;;;;;;;7.00;4.77;;;;;;;0.58;100.00;95490.69;10411764;28;20188;-57
2022/04/04 15:55:24;;;;;;;7.67;5.80;;;;;;;0.46;100.00;95461.56;10446379;28;20777;-58
2022/04/04 16:00:25;;;;;;;12.23;9.47;;;;;;;0.35;100.00;95476.16;10452621;28;20222;-58
2022/04/04 16:05:25;;;;;;;15.23;8.97;;;;;;;0.38;100.00;95443.38;10451122;28;20223;-57
2022/04/04 16:10:26;;;;;;;10.77;6.87;;;;;;;0.37;100.00;95418.53;10453347;28;20855;-58
2022/04/04 16:15:26;;;;;;;10.70;7.80;;;;;;;0.37;100.00;95426.25;10453829;28;20705;-54
2022/04/04 16:20:28;;;;;;;8.83;6.73;;;;;;;0.43;100.00;95413.72;10453206;28;20718;-53
2022/04/04 16:25:28;;;;;;;10.27;7.07;;;;;;;0.49;100.00;95402.91;10452677;28;20243;-55
2022/04/04 16:30:28;;;;;;;11.50;9.10;;;;;;;0.52;100.00;95407.81;10453062;28;20192;-56
2022/04/04 16:35:29;;;;;;;9.13;7.70;;;;;;;0.63;100.00;95398.34;10452084;28;20212;-54
2022/04/04 16:40:29;;;;;;;10.10;7.37;;;;;;;0.58;100.00;95398.72;10452679;28;20628;-54
2022/04/04 16:45:30;;;;;;;7.33;6.10;;;;;;;0.56;100.00;95410.94;10452688;28;20220;-55
2022/04/04 16:50:30;;;;;;;9.30;7.47;;;;;;;0.63;100.00;95394.03;10452162;28;20275;-55
2022/04/04 16:55:30;;;;;;;11.13;9.03;;;;;;;0.58;100.00;95388.41;10451547;28;20309;-54
2022/04/04 17:00:31;;;;;;;10.70;8.17;;;;;;;0.61;100.00;95382.19;10452179;28;20597;-54
2022/04/04 17:05:32;;;;;;;8.00;7.07;;;;;;;0.65;100.00;95371.50;10452242;28;20580;-52
2022/04/04 17:10:34;;;;;;;10.50;7.80;;;;;;;0.69;100.00;95382.41;10451398;28;20187;-53
2022/04/04 17:15:34;;;;;;;10.70;7.00;;;;;;;0.66;100.00;95357.69;10452217;28;20208;-54
2022/04/04 17:20:35;;;;;;;11.70;6.37;;;;;;;0.74;100.00;95357.03;10451346;28;20722;-53
2022/04/04 17:25:35;;;;;;;8.67;7.30;;;;;;;0.76;100.00;95351.75;10452049;28;20306;-51
2022/04/04 17:30:36;;;;;;;11.87;8.13;;;;;;;0.78;100.00;95330.06;10451701;28;20601;-55
2022/04/04 17:35:37;;;;;;;14.90;8.40;;;;;;;0.77;100.00;95327.63;10451839;28;20244;-52
2022/04/04 17:40:38;;;;;;;11.10;8.37;;;;;;;0.68;100.00;95337.75;10451697;28;20223;-53
2022/04/04 17:45:39;;;;;;;10.00;7.90;;;;;;;0.71;100.00;95344.41;10451288;28;20295;-53
2022/04/04 17:50:39;;;;;;;12.63;9.37;;;;;;;0.61;100.00;95335.81;10451806;28;20206;-54
2022/04/04 17:55:39;;;;;;;9.77;7.87;;;;;;;0.56;100.00;95328.47;10450927;28;20239;-55
2022/04/04 18:00:40;;;;;;;16.73;10.57;;;;;;;0.55;100.00;95326.03;10451466;28;20222;-52
2022/04/04 18:05:40;;;;;;;12.00;7.20;;;;;;;0.54;100.00;95330.38;10451143;28;20219;-53
2022/04/04 18:10:40;;;;;;;14.90;11.80;;;;;;;0.47;100.00;95317.19;10451089;28;20275;-53
2022/04/04 18:15:41;;;;;;;9.77;7.13;;;;;;;0.56;100.00;95322.50;10451183;28;20231;-55
2022/04/04 18:20:42;;;;;;;14.57;8.50;;;;;;;0.62;100.00;95315.06;10454802;28;20247;-55
2022/04/04 18:25:44;;;;;;;23.20;11.73;;;;;;;0.61;100.00;95321.16;10458464;28;20582;-54
2022/04/04 18:30:44;;;;;;;15.33;12.17;;;;;;;0.63;100.00;95324.44;10457903;28;20191;-54
2022/04/04 18:35:48;;;;;;;12.03;8.37;;;;;;;0.74;100.00;95317.56;10457773;28;20213;-55
2022/04/04 18:40:48;;;;;;;12.70;10.70;;;;;;;0.68;100.00;95317.13;10457687;28;20233;-53
2022/04/04 18:45:49;;;;;;;14.57;10.93;;;;;;;0.64;100.00;95320.91;10457086;28;20713;-53
2022/04/04 18:50:50;;;;;;;15.90;9.97;;;;;;;0.63;100.00;95309.00;10457568;28;20176;-53
2022/04/04 18:55:50;;;;;;;19.07;13.93;;;;;;;0.63;100.00;95319.28;10456403;28;20235;-53
2022/04/04 19:00:51;;;;;;;14.77;11.17;;;;;;;0.67;100.00;95325.84;10456657;28;20733;-54
2022/04/04 19:05:51;;;;;;;19.53;12.63;;;;;;;0.84;100.00;95320.97;10456486;28;20327;-53
2022/04/04 19:10:51;;;;;;;16.37;12.87;;;;;;;0.81;100.00;95300.63;10456215;28;20192;-53
2022/04/04 19:15:52;;;;;;;19.27;15.13;;;;;;;0.80;100.00;95294.66;10456237;28;20302;-53
2022/04/04 19:20:52;;;;;;;12.37;10.43;;;;;;;0.83;100.00;95317.59;10455314;28;20227;-54
2022/04/04 19:25:53;;;;;;;16.33;12.50;;;;;;;0.84;100.00;95295.19;10455838;28;20294;-55
2022/04/04 19:30:53;;;;;;;18.77;14.23;;;;;;;0.86;100.00;95319.09;10454597;28;20186;-53
2022/04/04 19:35:54;;;;;;;16.37;13.87;;;;;;;0.95;100.00;95304.59;10455351;28;20238;-55
2022/04/04 19:40:54;;;;;;;14.03;10.07;;;;;;;1.00;100.00;95292.13;10455028;28;20285;-53
2022/04/04 19:45:56;;;;;;;16.50;12.40;;;;;;;1.01;100.00;95291.16;10454733;28;20264;-54
2022/04/04 19:50:56;;;;;;;17.43;14.43;;;;;;;1.06;100.00;95318.19;10454960;28;20266;-53
2022/04/04 19:55:58;;;;;;;15.03;11.70;;;;;;;1.14;100.00;95288.34;10430722;22;20627;-53
2022/04/04 20:00:59;;;;;;;14.87;10.90;;;;;;;1.24;100.00;95290.00;10371997;28;20217;-49
2022/04/04 20:06:02;;;;;;;15.77;11.50;;;;;;;1.30;100.00;95298.13;10372098;28;20308;-54
2022/04/04 20:11:03;;;;;;;11.17;8.97;;;;;;;1.41;100.00;95309.16;10372218;28;20258;-57
2022/04/04 20:16:03;;;;;;;14.73;10.87;;;;;;;1.42;100.00;95318.53;10371848;28;20297;-56
2022/04/04 20:21:04;;;;;;;13.10;11.33;;;;;;;1.39;100.00;95290.44;10370880;28;20256;-56
2022/04/04 20:26:05;;;;;;;12.80;9.80;;;;;;;1.37;100.00;95291.50;10371350;28;20315;-52
2022/04/04 20:31:07;;;;;;;16.07;14.57;;;;;;;1.33;100.00;95308.19;10371214;28;20260;-54
2022/04/04 20:36:07;;;;;;;16.13;13.10;;;;;;;1.25;100.00;95288.22;10370792;28;20219;-55
2022/04/04 20:41:12;;;;;;;15.30;12.03;;;;;;;1.23;100.00;95285.78;10370657;28;20285;-54
2022/04/04 20:46:12;;;;;;;15.93;13.20;;;;;;;1.14;100.00;95289.16;10370453;28;20228;-54
2022/04/04 20:51:14;;;;;;;16.27;11.57;;;;;;;1.14;100.00;95278.84;10375882;28;20181;-50
2022/04/04 20:56:14;;;;;;;15.63;11.63;;;;;;;1.08;100.00;95291.47;10387519;28;20326;-54
2022/04/04 21:01:15;;;;;;;19.63;15.93;;;;;;;1.00;100.00;95274.09;10388648;28;20230;-54
2022/04/04 21:06:16;;;;;;;17.93;15.73;;;;;;;1.19;100.00;95283.59;10379917;28;20273;-52
2022/04/04 21:11:17;;;;;;;13.63;10.00;;;;;;;1.23;100.00;95295.28;10377322;28;20185;-54
2022/04/04 21:16:17;;;;;;;20.87;15.13;;;;;;;1.24;100.00;95268.53;10397646;28;20230;-51
2022/04/04 21:21:18;;;;;;;16.60;14.67;;;;;;;1.28;100.00;95257.00;10409740;28;20258;-53
2022/04/04 21:26:18;;;;;;;13.57;10.77;;;;;;;1.34;100.00;95276.28;10410391;28;20219;-49
2022/04/04 21:31:20;;;;;;;16.40;11.97;;;;;;;1.32;100.00;95263.53;10410385;28;20618;-51
2022/04/04 21:36:20;;;;;;;17.33;15.50;;;;;;;1.45;100.00;95262.44;10410203;28;20621;-53
2022/04/04 21:41:20;;;;;;;16.60;12.23;;;;;;;1.52;100.00;95256.59;10410152;28;20262;-50
2022/04/04 21:46:21;;;;;;;17.90;10.97;;;;;;;1.60;100.00;95271.41;10410224;28;20208;-52
2022/04/04 21:51:22;;;;;;;17.77;11.67;;;;;;;1.64;100.00;95243.53;10410056;28;20206;-50
2022/04/04 21:56:22;;;;;;;16.27;14.67;;;;;;;1.68;100.00;95258.59;10413865;28;20646;-55
2022/04/04 22:01:22;;;;;;;15.47;12.80;;;;;;;1.72;100.00;95254.00;10414111;28;20227;-50
2022/04/04 22:06:23;;;;;;;16.20;11.80;;;;;;;1.82;100.00;95244.47;10417101;28;20212;-55
2022/04/04 22:11:23;;;;;;;13.43;11.97;;;;;;;1.84;100.00;95273.56;10415703;28;20690;-56
2022/04/04 22:16:24;;;;;;;15.17;12.43;;;;;;;1.82;100.00;95259.94;10413407;28;20714;-57
2022/04/04 22:21:24;;;;;;;12.20;9.07;;;;;;;1.85;100.00;95271.78;10416212;28;20585;-56
2022/04/04 22:26:24;;;;;;;14.33;10.70;;;;;;;1.80;100.00;95250.72;10416034;28;20303;-50
2022/04/04 22:31:25;;;;;;;10.53;9.07;;;;;;;1.87;100.00;95256.94;10416025;28;20278;-57
2022/04/04 22:36:26;;;;;;;15.30;11.90;;;;;;;1.89;100.00;95252.47;10416423;28;20560;-56
2022/04/04 22:41:26;;;;;;;14.13;12.73;;;;;;;1.90;100.00;95261.84;10415564;28;20588;-57
2022/04/04 22:46:27;;;;;;;13.83;12.43;;;;;;;1.87;100.00;95244.88;10415843;28;20342;-57
2022/04/04 22:51:28;;;;;;;16.57;10.03;;;;;;;1.88;100.00;95243.91;10415597;28;20651;-54
2022/04/04 22:56:28;;;;;;;10.17;8.00;;;;;;;1.98;100.00;95228.41;10414874;28;20254;-51
2022/04/04 23:01:30;;;;;;;13.17;11.03;;;;;;;1.96;100.00;95225.13;10415300;28;20222;-52
2022/04/04 23:06:30;;;;;;;13.90;8.83;;;;;;;2.03;100.00;95226.19;10413451;28;20207;-56
2022/04/04 23:11:30;;;;;;;13.53;11.77;;;;;;;2.10;100.00;95232.44;10415014;28;20197;-50
2022/04/04 23:16:31;;;;;;;13.37;9.73;;;;;;;2.16;100.00;95230.25;10414547;28;20207;-50
2022/04/04 23:21:31;;;;;;;11.97;10.47;;;;;;;2.18;100.00;95247.25;10413854;28;20224;-51
2022/04/04 23:26:31;;;;;;;12.93;10.43;;;;;;;2.25;100.00;95234.56;10414229;28;20219;-56